sensor_id;sensor_type;location;lat;lon;timestamp;pressure;altitude;pressure_sealevel;temperature;humidity
32933;BME280;19444;50.518;10.870;2023-02-14T00:00:33;98472.66;;;-1.55;100.00
32933;BME280;19444;50.518;10.870;2023-02-14T00:03:30;98472.56;;;-1.61;100.00
32933;BME280;19444;50.518;10.870;2023-02-14T00:06:27;98474.56;;;-1.63;100.00
32933;BME280;19444;50.518;10.870;2023-02-14T00:09:27;98473.81;;;-1.57;100.00
32933;BME280;19444;50.518;10.870;2023-02-14T00:12:24;98473.75;;;-1.49;100.00
32933;BME280;19444;50.518;10.870;2023-02-14T00:15:21;98471.84;;;-1.55;100.00
32933;BME280;19444;50.518;10.870;2023-02-14T00:18:18;98465.31;;;-1.59;100.00
32933;BME280;19444;50.518;10.870;2023-02-14T00:21:15;98463.22;;;-1.49;100.00
32933;BME280;19444;50.518;10.870;2023-02-14T00:24:22;98470.38;;;-1.58;100.00
32933;BME280;19444;50.518;10.870;2023-02-14T00:27:19;98454.81;;;-1.59;100.00
32933;BME280;19444;50.518;10.870;2023-02-14T00:30:16;98459.59;;;-1.48;100.00
32933;BME280;19444;50.518;10.870;2023-02-14T00:33:13;98457.06;;;-1.56;100.00
32933;BME280;19444;50.518;10.870;2023-02-14T00:36:11;98448.19;;;-1.70;100.00
32933;BME280;19444;50.518;10.870;2023-02-14T00:39:12;98453.06;;;-1.67;100.00
32933;BME280;19444;50.518;10.870;2023-02-14T00:42:09;98445.28;;;-1.75;100.00
32933;BME280;19444;50.518;10.870;2023-02-14T00:45:06;98452.53;;;-1.62;100.00
32933;BME280;19444;50.518;10.870;2023-02-14T00:48:03;98458.25;;;-1.59;100.00
32933;BME280;19444;50.518;10.870;2023-02-14T00:51:00;98462.59;;;-1.66;100.00
32933;BME280;19444;50.518;10.870;2023-02-14T00:53:57;98458.31;;;-1.67;100.00
32933;BME280;19444;50.518;10.870;2023-02-14T00:56:54;98461.50;;;-1.72;100.00
32933;BME280;19444;50.518;10.870;2023-02-14T00:59:51;98452.72;;;-1.64;100.00
32933;BME280;19444;50.518;10.870;2023-02-14T01:02:48;98452.16;;;-1.74;100.00
32933;BME280;19444;50.518;10.870;2023-02-14T01:05:47;98451.78;;;-1.86;100.00
32933;BME280;19444;50.518;10.870;2023-02-14T01:08:44;98448.56;;;-1.73;100.00
32933;BME280;19444;50.518;10.870;2023-02-14T01:11:41;98454.97;;;-1.61;100.00
32933;BME280;19444;50.518;10.870;2023-02-14T01:14:38;98455.06;;;-1.84;100.00
32933;BME280;19444;50.518;10.870;2023-02-14T01:17:34;98460.50;;;-1.85;100.00
32933;BME280;19444;50.518;10.870;2023-02-14T01:20:32;98457.13;;;-1.94;100.00
32933;BME280;19444;50.518;10.870;2023-02-14T01:23:29;98449.25;;;-1.94;100.00
32933;BME280;19444;50.518;10.870;2023-02-14T01:26:27;98446.88;;;-2.04;100.00
32933;BME280;19444;50.518;10.870;2023-02-14T01:29:24;98450.16;;;-2.02;100.00
32933;BME280;19444;50.518;10.870;2023-02-14T01:32:21;98447.50;;;-2.02;100.00
32933;BME280;19444;50.518;10.870;2023-02-14T01:35:18;98447.81;;;-1.96;100.00
32933;BME280;19444;50.518;10.870;2023-02-14T01:38:15;98444.25;;;-2.04;100.00
32933;BME280;19444;50.518;10.870;2023-02-14T01:41:12;98444.44;;;-2.05;100.00
32933;BME280;19444;50.518;10.870;2023-02-14T01:47:10;98444.34;;;-2.12;100.00
32933;BME280;19444;50.518;10.870;2023-02-14T01:50:29;98439.91;;;-2.11;100.00
32933;BME280;19444;50.518;10.870;2023-02-14T01:53:27;98440.56;;;-2.09;100.00
32933;BME280;19444;50.518;10.870;2023-02-14T01:56:33;98435.56;;;-2.04;100.00
32933;BME280;19444;50.518;10.870;2023-02-14T01:59:36;98435.94;;;-2.07;100.00
32933;BME280;19444;50.518;10.870;2023-02-14T02:02:34;98436.31;;;-2.10;100.00
32933;BME280;19444;50.518;10.870;2023-02-14T02:05:31;98439.25;;;-2.13;100.00
32933;BME280;19444;50.518;10.870;2023-02-14T02:08:28;98431.06;;;-2.10;100.00
32933;BME280;19444;50.518;10.870;2023-02-14T02:11:25;98439.94;;;-1.96;100.00
32933;BME280;19444;50.518;10.870;2023-02-14T02:14:23;98447.25;;;-2.07;100.00
32933;BME280;19444;50.518;10.870;2023-02-14T02:18:02;98429.97;;;-2.01;100.00
32933;BME280;19444;50.518;10.870;2023-02-14T02:28:45;98421.69;;;-2.13;100.00
32933;BME280;19444;50.518;10.870;2023-02-14T02:45:49;98436.03;;;-2.01;100.00
32933;BME280;19444;50.518;10.870;2023-02-14T02:53:27;98426.59;;;-1.95;100.00
32933;BME280;19444;50.518;10.870;2023-02-14T02:56:38;98432.41;;;-1.99;100.00
32933;BME280;19444;50.518;10.870;2023-02-14T02:59:43;98433.75;;;-2.04;100.00
32933;BME280;19444;50.518;10.870;2023-02-14T03:02:46;98430.13;;;-2.17;100.00
32933;BME280;19444;50.518;10.870;2023-02-14T03:06:03;98436.84;;;-2.00;100.00
32933;BME280;19444;50.518;10.870;2023-02-14T03:16:01;98426.88;;;-2.19;100.00
32933;BME280;19444;50.518;10.870;2023-02-14T03:19:32;98420.34;;;-2.09;100.00
32933;BME280;19444;50.518;10.870;2023-02-14T03:26:21;98426.75;;;-2.11;100.00
32933;BME280;19444;50.518;10.870;2023-02-14T03:36:00;98433.78;;;-1.89;100.00
32933;BME280;19444;50.518;10.870;2023-02-14T03:39:27;98435.13;;;-1.78;100.00
32933;BME280;19444;50.518;10.870;2023-02-14T03:42:37;98425.19;;;-1.83;100.00
32933;BME280;19444;50.518;10.870;2023-02-14T03:46:03;98426.06;;;-1.76;100.00
32933;BME280;19444;50.518;10.870;2023-02-14T03:49:07;98423.00;;;-1.79;100.00
32933;BME280;19444;50.518;10.870;2023-02-14T03:52:07;98423.53;;;-1.69;100.00
32933;BME280;19444;50.518;10.870;2023-02-14T03:55:06;98426.06;;;-1.61;100.00
32933;BME280;19444;50.518;10.870;2023-02-14T03:58:22;98425.97;;;-1.67;100.00
32933;BME280;19444;50.518;10.870;2023-02-14T04:01:27;98428.34;;;-1.73;100.00
32933;BME280;19444;50.518;10.870;2023-02-14T04:04:30;98435.31;;;-1.50;100.00
32933;BME280;19444;50.518;10.870;2023-02-14T04:07:29;98433.09;;;-1.47;100.00
32933;BME280;19444;50.518;10.870;2023-02-14T04:10:26;98431.84;;;-1.51;100.00
32933;BME280;19444;50.518;10.870;2023-02-14T04:13:23;98433.56;;;-1.43;100.00
32933;BME280;19444;50.518;10.870;2023-02-14T04:16:19;98426.69;;;-1.44;100.00
32933;BME280;19444;50.518;10.870;2023-02-14T04:19:16;98426.22;;;-1.33;100.00
32933;BME280;19444;50.518;10.870;2023-02-14T04:22:19;98415.47;;;-1.53;100.00
32933;BME280;19444;50.518;10.870;2023-02-14T04:25:18;98413.25;;;-1.49;100.00
32933;BME280;19444;50.518;10.870;2023-02-14T04:28:15;98419.97;;;-1.47;100.00
32933;BME280;19444;50.518;10.870;2023-02-14T04:31:12;98415.56;;;-1.61;100.00
32933;BME280;19444;50.518;10.870;2023-02-14T04:34:09;98419.72;;;-1.66;100.00
32933;BME280;19444;50.518;10.870;2023-02-14T04:37:07;98410.69;;;-1.64;100.00
32933;BME280;19444;50.518;10.870;2023-02-14T04:40:05;98421.00;;;-1.62;100.00
32933;BME280;19444;50.518;10.870;2023-02-14T04:43:02;98422.44;;;-1.45;100.00
32933;BME280;19444;50.518;10.870;2023-02-14T04:46:00;98418.81;;;-1.59;100.00
32933;BME280;19444;50.518;10.870;2023-02-14T04:48:57;98411.09;;;-1.60;100.00
32933;BME280;19444;50.518;10.870;2023-02-14T04:51:55;98410.56;;;-1.70;100.00
32933;BME280;19444;50.518;10.870;2023-02-14T04:54:52;98414.22;;;-1.72;100.00
32933;BME280;19444;50.518;10.870;2023-02-14T04:57:49;98412.66;;;-1.81;100.00
32933;BME280;19444;50.518;10.870;2023-02-14T05:00:46;98406.31;;;-1.86;100.00
32933;BME280;19444;50.518;10.870;2023-02-14T05:03:43;98407.59;;;-1.82;100.00
32933;BME280;19444;50.518;10.870;2023-02-14T05:06:40;98412.66;;;-1.81;100.00
32933;BME280;19444;50.518;10.870;2023-02-14T05:09:37;98413.28;;;-1.93;100.00
32933;BME280;19444;50.518;10.870;2023-02-14T05:12:34;98409.78;;;-2.01;100.00
32933;BME280;19444;50.518;10.870;2023-02-14T05:15:31;98409.94;;;-2.02;100.00
32933;BME280;19444;50.518;10.870;2023-02-14T05:18:28;98411.31;;;-1.91;100.00
32933;BME280;19444;50.518;10.870;2023-02-14T05:21:27;98403.22;;;-1.75;100.00
32933;BME280;19444;50.518;10.870;2023-02-14T05:24:32;98405.94;;;-1.83;100.00
32933;BME280;19444;50.518;10.870;2023-02-14T05:27:29;98402.34;;;-1.97;100.00
32933;BME280;19444;50.518;10.870;2023-02-14T05:30:26;98414.47;;;-1.81;100.00
32933;BME280;19444;50.518;10.870;2023-02-14T05:33:25;98408.03;;;-1.79;100.00
32933;BME280;19444;50.518;10.870;2023-02-14T05:36:22;98406.41;;;-1.80;100.00
32933;BME280;19444;50.518;10.870;2023-02-14T05:39:18;98404.88;;;-1.89;100.00
32933;BME280;19444;50.518;10.870;2023-02-14T05:42:15;98403.78;;;-1.94;100.00
32933;BME280;19444;50.518;10.870;2023-02-14T05:45:12;98400.34;;;-1.80;100.00
32933;BME280;19444;50.518;10.870;2023-02-14T05:48:09;98408.19;;;-1.65;100.00
32933;BME280;19444;50.518;10.870;2023-02-14T05:51:08;98404.03;;;-1.75;100.00
32933;BME280;19444;50.518;10.870;2023-02-14T05:54:06;98406.13;;;-1.70;100.00
32933;BME280;19444;50.518;10.870;2023-02-14T05:57:06;98408.94;;;-1.72;100.00
32933;BME280;19444;50.518;10.870;2023-02-14T06:00:05;98402.41;;;-1.76;100.00
32933;BME280;19444;50.518;10.870;2023-02-14T06:03:03;98413.47;;;-1.80;100.00
32933;BME280;19444;50.518;10.870;2023-02-14T06:06:00;98418.91;;;-1.67;100.00
32933;BME280;19444;50.518;10.870;2023-02-14T06:08:57;98410.69;;;-1.64;100.00
32933;BME280;19444;50.518;10.870;2023-02-14T06:11:54;98414.28;;;-1.65;100.00
32933;BME280;19444;50.518;10.870;2023-02-14T06:14:51;98423.16;;;-1.66;100.00
32933;BME280;19444;50.518;10.870;2023-02-14T06:17:53;98407.38;;;-1.66;100.00
32933;BME280;19444;50.518;10.870;2023-02-14T06:20:52;98420.09;;;-1.69;100.00
32933;BME280;19444;50.518;10.870;2023-02-14T06:23:50;98421.34;;;-1.51;100.00
32933;BME280;19444;50.518;10.870;2023-02-14T06:26:47;98416.38;;;-1.60;100.00
32933;BME280;19444;50.518;10.870;2023-02-14T06:29:44;98422.63;;;-1.61;100.00
32933;BME280;19444;50.518;10.870;2023-02-14T06:32:41;98427.41;;;-1.65;100.00
32933;BME280;19444;50.518;10.870;2023-02-14T06:35:38;98421.63;;;-1.60;100.00
32933;BME280;19444;50.518;10.870;2023-02-14T06:38:35;98426.69;;;-1.59;100.00
32933;BME280;19444;50.518;10.870;2023-02-14T06:41:32;98443.28;;;-1.58;100.00
32933;BME280;19444;50.518;10.870;2023-02-14T06:44:29;98427.59;;;-1.37;100.00
32933;BME280;19444;50.518;10.870;2023-02-14T06:47:25;98426.44;;;-1.64;100.00
32933;BME280;19444;50.518;10.870;2023-02-14T06:50:22;98428.41;;;-1.66;100.00
32933;BME280;19444;50.518;10.870;2023-02-14T06:53:20;98431.50;;;-1.62;100.00
32933;BME280;19444;50.518;10.870;2023-02-14T06:56:16;98428.94;;;-1.56;100.00
32933;BME280;19444;50.518;10.870;2023-02-14T06:59:13;98426.31;;;-1.56;100.00
32933;BME280;19444;50.518;10.870;2023-02-14T07:02:10;98430.59;;;-1.55;100.00
32933;BME280;19444;50.518;10.870;2023-02-14T07:05:08;98421.16;;;-1.49;100.00
32933;BME280;19444;50.518;10.870;2023-02-14T07:08:05;98411.19;;;-1.54;100.00
32933;BME280;19444;50.518;10.870;2023-02-14T07:11:02;98418.72;;;-1.65;100.00
32933;BME280;19444;50.518;10.870;2023-02-14T07:13:59;98408.09;;;-1.57;100.00
32933;BME280;19444;50.518;10.870;2023-02-14T07:16:56;98401.41;;;-1.60;100.00
32933;BME280;19444;50.518;10.870;2023-02-14T07:19:53;98419.81;;;-1.60;100.00
32933;BME280;19444;50.518;10.870;2023-02-14T07:22:50;98415.88;;;-1.34;100.00
32933;BME280;19444;50.518;10.870;2023-02-14T07:25:47;98410.16;;;-1.38;100.00
32933;BME280;19444;50.518;10.870;2023-02-14T07:28:45;98410.53;;;-1.41;100.00
32933;BME280;19444;50.518;10.870;2023-02-14T07:31:42;98412.69;;;-1.30;100.00
32933;BME280;19444;50.518;10.870;2023-02-14T07:34:39;98411.53;;;-1.27;100.00
32933;BME280;19444;50.518;10.870;2023-02-14T07:37:36;98410.63;;;-1.34;100.00
32933;BME280;19444;50.518;10.870;2023-02-14T07:40:32;98407.47;;;-1.45;100.00
32933;BME280;19444;50.518;10.870;2023-02-14T07:43:29;98395.59;;;-1.19;100.00
32933;BME280;19444;50.518;10.870;2023-02-14T07:46:26;98403.88;;;-1.22;100.00
32933;BME280;19444;50.518;10.870;2023-02-14T07:49:23;98393.13;;;-1.06;100.00
32933;BME280;19444;50.518;10.870;2023-02-14T07:52:20;98399.81;;;-1.03;100.00
32933;BME280;19444;50.518;10.870;2023-02-14T07:55:17;98392.63;;;-0.95;100.00
32933;BME280;19444;50.518;10.870;2023-02-14T07:58:15;98384.94;;;-0.96;100.00
32933;BME280;19444;50.518;10.870;2023-02-14T08:01:11;98388.38;;;-0.96;100.00
32933;BME280;19444;50.518;10.870;2023-02-14T08:04:09;98379.53;;;-1.09;100.00
32933;BME280;19444;50.518;10.870;2023-02-14T08:07:06;98374.13;;;-1.01;100.00
32933;BME280;19444;50.518;10.870;2023-02-14T08:10:04;98375.78;;;-0.79;100.00
32933;BME280;19444;50.518;10.870;2023-02-14T08:13:01;98374.38;;;-0.53;100.00
32933;BME280;19444;50.518;10.870;2023-02-14T08:15:59;98378.03;;;-0.76;100.00
32933;BME280;19444;50.518;10.870;2023-02-14T08:19:02;98372.41;;;-0.73;100.00
32933;BME280;19444;50.518;10.870;2023-02-14T08:22:00;98376.47;;;-0.70;100.00
32933;BME280;19444;50.518;10.870;2023-02-14T08:24:57;98377.22;;;-0.76;100.00
32933;BME280;19444;50.518;10.870;2023-02-14T08:27:54;98380.59;;;-1.04;100.00
32933;BME280;19444;50.518;10.870;2023-02-14T08:30:51;98384.34;;;-0.92;100.00
32933;BME280;19444;50.518;10.870;2023-02-14T08:33:48;98375.41;;;-0.76;100.00
32933;BME280;19444;50.518;10.870;2023-02-14T08:36:45;98378.22;;;-0.77;100.00
32933;BME280;19444;50.518;10.870;2023-02-14T08:39:43;98372.13;;;-0.57;100.00
32933;BME280;19444;50.518;10.870;2023-02-14T08:42:40;98374.56;;;-0.55;100.00
32933;BME280;19444;50.518;10.870;2023-02-14T08:45:38;98370.13;;;-0.54;100.00
32933;BME280;19444;50.518;10.870;2023-02-14T08:48:37;98367.50;;;-0.54;100.00
32933;BME280;19444;50.518;10.870;2023-02-14T08:51:35;98365.34;;;-0.66;100.00
32933;BME280;19444;50.518;10.870;2023-02-14T08:54:32;98377.66;;;-0.73;100.00
32933;BME280;19444;50.518;10.870;2023-02-14T08:57:29;98368.41;;;-0.41;100.00
32933;BME280;19444;50.518;10.870;2023-02-14T09:00:26;98371.91;;;-0.55;100.00
32933;BME280;19444;50.518;10.870;2023-02-14T09:03:23;98366.38;;;-0.67;100.00
32933;BME280;19444;50.518;10.870;2023-02-14T09:06:20;98368.44;;;-0.62;100.00
32933;BME280;19444;50.518;10.870;2023-02-14T09:09:17;98359.78;;;-0.77;100.00
32933;BME280;19444;50.518;10.870;2023-02-14T09:12:15;98360.25;;;-0.46;100.00
32933;BME280;19444;50.518;10.870;2023-02-14T09:15:12;98368.59;;;-0.42;100.00
32933;BME280;19444;50.518;10.870;2023-02-14T09:18:09;98355.91;;;0.03;100.00
32933;BME280;19444;50.518;10.870;2023-02-14T09:21:12;98355.34;;;0.14;100.00
32933;BME280;19444;50.518;10.870;2023-02-14T09:24:09;98354.56;;;0.13;100.00
32933;BME280;19444;50.518;10.870;2023-02-14T09:27:06;98350.63;;;0.44;100.00
32933;BME280;19444;50.518;10.870;2023-02-14T09:30:06;98336.19;;;1.60;100.00
32933;BME280;19444;50.518;10.870;2023-02-14T09:33:03;98330.59;;;2.08;100.00
32933;BME280;19444;50.518;10.870;2023-02-14T09:36:01;98322.88;;;4.63;100.00
32933;BME280;19444;50.518;10.870;2023-02-14T09:39:16;98317.47;;;4.99;100.00
32933;BME280;19444;50.518;10.870;2023-02-14T09:45:37;98305.03;;;7.31;100.00
32933;BME280;19444;50.518;10.870;2023-02-14T09:48:38;98304.28;;;5.69;100.00
32933;BME280;19444;50.518;10.870;2023-02-14T09:51:38;98302.91;;;8.88;100.00
32933;BME280;19444;50.518;10.870;2023-02-14T09:54:39;98282.69;;;10.08;97.92
32933;BME280;19444;50.518;10.870;2023-02-14T09:57:59;98281.59;;;12.19;73.38
32933;BME280;19444;50.518;10.870;2023-02-14T10:01:14;98292.66;;;12.08;67.48
32933;BME280;19444;50.518;10.870;2023-02-14T10:04:31;98283.84;;;11.61;76.05
32933;BME280;19444;50.518;10.870;2023-02-14T10:11:18;98274.31;;;12.20;72.40
32933;BME280;19444;50.518;10.870;2023-02-14T10:14:23;98283.72;;;10.65;89.56
32933;BME280;19444;50.518;10.870;2023-02-14T10:17:39;98278.75;;;11.45;86.75
32933;BME280;19444;50.518;10.870;2023-02-14T10:20:54;98281.13;;;11.00;93.29
32933;BME280;19444;50.518;10.870;2023-02-14T10:24:13;98278.72;;;11.24;80.90
32933;BME280;19444;50.518;10.870;2023-02-14T10:30:22;98277.41;;;10.23;99.34
32933;BME280;19444;50.518;10.870;2023-02-14T10:33:21;98272.69;;;9.51;100.00
32933;BME280;19444;50.518;10.870;2023-02-14T10:43:31;98263.72;;;8.06;100.00
32933;BME280;19444;50.518;10.870;2023-02-14T10:46:44;98268.72;;;8.02;100.00
32933;BME280;19444;50.518;10.870;2023-02-14T10:50:24;98264.72;;;7.27;100.00
32933;BME280;19444;50.518;10.870;2023-02-14T10:57:11;98258.09;;;7.13;100.00
32933;BME280;19444;50.518;10.870;2023-02-14T11:00:31;98244.53;;;7.87;100.00
32933;BME280;19444;50.518;10.870;2023-02-14T11:03:30;98250.16;;;7.68;100.00
32933;BME280;19444;50.518;10.870;2023-02-14T11:06:29;98253.03;;;7.67;100.00
32933;BME280;19444;50.518;10.870;2023-02-14T11:09:26;98250.16;;;7.68;100.00
32933;BME280;19444;50.518;10.870;2023-02-14T11:12:38;98252.28;;;7.88;100.00
32933;BME280;19444;50.518;10.870;2023-02-14T11:15:38;98257.19;;;7.96;100.00
32933;BME280;19444;50.518;10.870;2023-02-14T11:18:39;98248.84;;;7.93;100.00
32933;BME280;19444;50.518;10.870;2023-02-14T11:21:42;98241.63;;;8.59;100.00
32933;BME280;19444;50.518;10.870;2023-02-14T11:24:40;98236.91;;;8.93;100.00
32933;BME280;19444;50.518;10.870;2023-02-14T11:27:38;98234.47;;;8.38;100.00
32933;BME280;19444;50.518;10.870;2023-02-14T11:30:41;98231.72;;;8.54;100.00
32933;BME280;19444;50.518;10.870;2023-02-14T11:33:40;98237.63;;;8.13;100.00
32933;BME280;19444;50.518;10.870;2023-02-14T11:36:40;98232.66;;;8.97;100.00
32933;BME280;19444;50.518;10.870;2023-02-14T11:39:38;98239.56;;;8.93;100.00
32933;BME280;19444;50.518;10.870;2023-02-14T11:42:43;98247.88;;;7.99;100.00
32933;BME280;19444;50.518;10.870;2023-02-14T11:45:43;98244.34;;;7.38;100.00
32933;BME280;19444;50.518;10.870;2023-02-14T11:49:05;98232.84;;;9.18;100.00
32933;BME280;19444;50.518;10.870;2023-02-14T11:52:14;98229.09;;;7.72;100.00
32933;BME280;19444;50.518;10.870;2023-02-14T11:55:31;98215.13;;;9.11;100.00
32933;BME280;19444;50.518;10.870;2023-02-14T12:01:40;98223.06;;;8.69;100.00
32933;BME280;19444;50.518;10.870;2023-02-14T12:04:43;98208.28;;;9.26;100.00
32933;BME280;19444;50.518;10.870;2023-02-14T12:07:43;98205.81;;;9.56;100.00
32933;BME280;19444;50.518;10.870;2023-02-14T12:10:41;98202.16;;;9.73;100.00
32933;BME280;19444;50.518;10.870;2023-02-14T12:13:38;98199.84;;;9.44;100.00
32933;BME280;19444;50.518;10.870;2023-02-14T12:16:46;98192.69;;;9.60;100.00
32933;BME280;19444;50.518;10.870;2023-02-14T12:20:13;98197.16;;;9.44;100.00
32933;BME280;19444;50.518;10.870;2023-02-14T12:30:18;98183.81;;;9.49;100.00
32933;BME280;19444;50.518;10.870;2023-02-14T12:33:19;98178.53;;;9.17;100.00
32933;BME280;19444;50.518;10.870;2023-02-14T12:37:12;98178.56;;;8.09;100.00
32933;BME280;19444;50.518;10.870;2023-02-14T12:43:56;98181.88;;;7.94;100.00
32933;BME280;19444;50.518;10.870;2023-02-14T12:57:12;98163.06;;;7.62;100.00
32933;BME280;19444;50.518;10.870;2023-02-14T13:00:46;98159.97;;;7.70;100.00
32933;BME280;19444;50.518;10.870;2023-02-14T13:04:19;98162.22;;;7.40;100.00
32933;BME280;19444;50.518;10.870;2023-02-14T13:10:53;98157.16;;;7.38;100.00
32933;BME280;19444;50.518;10.870;2023-02-14T13:14:19;98159.22;;;6.81;100.00
32933;BME280;19444;50.518;10.870;2023-02-14T13:17:33;98152.00;;;7.32;100.00
32933;BME280;19444;50.518;10.870;2023-02-14T13:20:57;98151.88;;;7.05;100.00
32933;BME280;19444;50.518;10.870;2023-02-14T13:24:20;98159.63;;;6.90;100.00
32933;BME280;19444;50.518;10.870;2023-02-14T13:27:22;98141.91;;;7.17;100.00
32933;BME280;19444;50.518;10.870;2023-02-14T13:30:35;98135.88;;;7.65;100.00
32933;BME280;19444;50.518;10.870;2023-02-14T13:33:51;98143.06;;;6.54;100.00
32933;BME280;19444;50.518;10.870;2023-02-14T13:36:50;98144.13;;;6.87;100.00
32933;BME280;19444;50.518;10.870;2023-02-14T13:39:54;98148.47;;;6.76;100.00
32933;BME280;19444;50.518;10.870;2023-02-14T13:42:58;98129.09;;;7.14;100.00
32933;BME280;19444;50.518;10.870;2023-02-14T13:45:56;98133.34;;;6.14;100.00
32933;BME280;19444;50.518;10.870;2023-02-14T13:49:05;98137.34;;;6.79;100.00
32933;BME280;19444;50.518;10.870;2023-02-14T13:52:09;98130.97;;;6.80;100.00
32933;BME280;19444;50.518;10.870;2023-02-14T13:55:19;98125.09;;;7.33;100.00
32933;BME280;19444;50.518;10.870;2023-02-14T13:58:19;98112.44;;;7.67;100.00
32933;BME280;19444;50.518;10.870;2023-02-14T14:01:37;98114.56;;;7.44;100.00
32933;BME280;19444;50.518;10.870;2023-02-14T14:04:44;98115.47;;;6.60;100.00
32933;BME280;19444;50.518;10.870;2023-02-14T14:07:41;98108.59;;;6.02;100.00
32933;BME280;19444;50.518;10.870;2023-02-14T14:10:57;98109.59;;;5.96;100.00
32933;BME280;19444;50.518;10.870;2023-02-14T14:17:20;98101.22;;;5.64;100.00
32933;BME280;19444;50.518;10.870;2023-02-14T14:23:34;98095.81;;;5.59;100.00
32933;BME280;19444;50.518;10.870;2023-02-14T14:26:43;98097.88;;;5.57;100.00
32933;BME280;19444;50.518;10.870;2023-02-14T14:29:54;98086.53;;;5.21;100.00
32933;BME280;19444;50.518;10.870;2023-02-14T14:32:51;98097.28;;;5.14;100.00
32933;BME280;19444;50.518;10.870;2023-02-14T14:36:04;98098.78;;;5.22;100.00
32933;BME280;19444;50.518;10.870;2023-02-14T14:39:03;98082.22;;;5.32;100.00
32933;BME280;19444;50.518;10.870;2023-02-14T14:42:12;98083.41;;;5.24;100.00
32933;BME280;19444;50.518;10.870;2023-02-14T14:45:25;98080.41;;;5.09;100.00
32933;BME280;19444;50.518;10.870;2023-02-14T14:48:37;98092.09;;;4.96;100.00
32933;BME280;19444;50.518;10.870;2023-02-14T14:51:36;98087.50;;;4.68;100.00
32933;BME280;19444;50.518;10.870;2023-02-14T14:54:34;98089.19;;;4.63;100.00
32933;BME280;19444;50.518;10.870;2023-02-14T14:57:32;98086.69;;;4.68;100.00
32933;BME280;19444;50.518;10.870;2023-02-14T15:00:38;98085.75;;;4.50;100.00
32933;BME280;19444;50.518;10.870;2023-02-14T15:03:38;98079.25;;;3.93;100.00
32933;BME280;19444;50.518;10.870;2023-02-14T15:06:35;98088.75;;;3.70;100.00
32933;BME280;19444;50.518;10.870;2023-02-14T15:09:32;98095.47;;;3.36;100.00
32933;BME280;19444;50.518;10.870;2023-02-14T15:12:29;98096.19;;;3.62;100.00
32933;BME280;19444;50.518;10.870;2023-02-14T15:15:49;98095.06;;;3.39;100.00
32933;BME280;19444;50.518;10.870;2023-02-14T15:18:47;98099.75;;;3.37;100.00
32933;BME280;19444;50.518;10.870;2023-02-14T15:21:45;98092.84;;;3.36;100.00
32933;BME280;19444;50.518;10.870;2023-02-14T15:24:42;98098.88;;;3.43;100.00
32933;BME280;19444;50.518;10.870;2023-02-14T15:27:40;98094.53;;;3.31;100.00
32933;BME280;19444;50.518;10.870;2023-02-14T15:30:37;98098.34;;;2.98;100.00
32933;BME280;19444;50.518;10.870;2023-02-14T15:33:36;98092.53;;;3.45;100.00
32933;BME280;19444;50.518;10.870;2023-02-14T15:36:34;98091.25;;;3.65;100.00
32933;BME280;19444;50.518;10.870;2023-02-14T15:39:40;98091.00;;;3.19;100.00
32933;BME280;19444;50.518;10.870;2023-02-14T15:42:43;98097.03;;;3.26;100.00
32933;BME280;19444;50.518;10.870;2023-02-14T15:45:42;98106.66;;;2.83;100.00
32933;BME280;19444;50.518;10.870;2023-02-14T15:48:40;98100.88;;;3.48;100.00
32933;BME280;19444;50.518;10.870;2023-02-14T15:51:38;98103.38;;;3.25;100.00
32933;BME280;19444;50.518;10.870;2023-02-14T15:54:42;98106.16;;;2.93;100.00
32933;BME280;19444;50.518;10.870;2023-02-14T15:57:44;98118.38;;;3.12;100.00
32933;BME280;19444;50.518;10.870;2023-02-14T16:00:44;98101.16;;;3.58;100.00
32933;BME280;19444;50.518;10.870;2023-02-14T16:03:50;98114.25;;;3.17;100.00
32933;BME280;19444;50.518;10.870;2023-02-14T16:10:21;98117.66;;;2.80;100.00
32933;BME280;19444;50.518;10.870;2023-02-14T16:13:27;98118.69;;;2.79;100.00
32933;BME280;19444;50.518;10.870;2023-02-14T16:16:24;98121.84;;;2.70;100.00
32933;BME280;19444;50.518;10.870;2023-02-14T16:19:50;98115.59;;;2.82;100.00
32933;BME280;19444;50.518;10.870;2023-02-14T16:22:49;98120.97;;;2.76;100.00
32933;BME280;19444;50.518;10.870;2023-02-14T16:25:46;98124.13;;;2.41;100.00
32933;BME280;19444;50.518;10.870;2023-02-14T16:28:43;98118.69;;;2.54;100.00
32933;BME280;19444;50.518;10.870;2023-02-14T16:31:54;98116.22;;;2.35;100.00
32933;BME280;19444;50.518;10.870;2023-02-14T16:35:18;98123.56;;;2.33;100.00
32933;BME280;19444;50.518;10.870;2023-02-14T16:38:18;98117.97;;;1.84;100.00
32933;BME280;19444;50.518;10.870;2023-02-14T16:41:27;98124.94;;;1.72;100.00
32933;BME280;19444;50.518;10.870;2023-02-14T16:44:24;98133.72;;;1.66;100.00
32933;BME280;19444;50.518;10.870;2023-02-14T16:47:21;98124.56;;;1.62;100.00
32933;BME280;19444;50.518;10.870;2023-02-14T16:50:18;98127.63;;;1.65;100.00
32933;BME280;19444;50.518;10.870;2023-02-14T16:53:25;98125.91;;;1.39;100.00
32933;BME280;19444;50.518;10.870;2023-02-14T16:56:32;98127.88;;;1.57;100.00
32933;BME280;19444;50.518;10.870;2023-02-14T16:59:31;98127.88;;;1.57;100.00
32933;BME280;19444;50.518;10.870;2023-02-14T17:02:28;98133.91;;;1.64;100.00
32933;BME280;19444;50.518;10.870;2023-02-14T17:05:25;98125.00;;;1.59;100.00
32933;BME280;19444;50.518;10.870;2023-02-14T17:08:24;98122.63;;;1.44;100.00
32933;BME280;19444;50.518;10.870;2023-02-14T17:11:22;98122.38;;;1.52;100.00
32933;BME280;19444;50.518;10.870;2023-02-14T17:14:26;98115.34;;;1.39;100.00
32933;BME280;19444;50.518;10.870;2023-02-14T17:17:25;98125.84;;;1.46;100.00
32933;BME280;19444;50.518;10.870;2023-02-14T17:20:22;98126.72;;;1.40;100.00
32933;BME280;19444;50.518;10.870;2023-02-14T17:23:19;98115.56;;;1.31;100.00
32933;BME280;19444;50.518;10.870;2023-02-14T17:26:17;98114.75;;;1.31;100.00
32933;BME280;19444;50.518;10.870;2023-02-14T17:29:15;98118.22;;;1.25;100.00